sensor_id;sensor_type;location;lat;lon;timestamp;temperature;humidity
58469;DHT22;44257;44.804;10.220;2023-04-12T00:01:03;11.20;99.90
58469;DHT22;44257;44.804;10.220;2023-04-12T00:03:28;11.10;99.90
58469;DHT22;44257;44.804;10.220;2023-04-12T00:05:55;10.90;99.90
58469;DHT22;44257;44.804;10.220;2023-04-12T00:08:23;10.80;99.90
58469;DHT22;44257;44.804;10.220;2023-04-12T00:10:51;10.70;99.90
58469;DHT22;44257;44.804;10.220;2023-04-12T00:13:18;10.70;99.90
58469;DHT22;44257;44.804;10.220;2023-04-12T00:15:44;10.70;99.90
58469;DHT22;44257;44.804;10.220;2023-04-12T00:18:10;10.70;99.90
58469;DHT22;44257;44.804;10.220;2023-04-12T00:20:36;10.50;99.90
58469;DHT22;44257;44.804;10.220;2023-04-12T00:23:03;10.40;99.90
58469;DHT22;44257;44.804;10.220;2023-04-12T00:25:29;10.30;99.90
58469;DHT22;44257;44.804;10.220;2023-04-12T00:27:54;10.20;99.90
58469;DHT22;44257;44.804;10.220;2023-04-12T00:30:21;10.20;99.90
58469;DHT22;44257;44.804;10.220;2023-04-12T00:32:47;10.10;99.90
58469;DHT22;44257;44.804;10.220;2023-04-12T00:35:13;10.10;99.90
58469;DHT22;44257;44.804;10.220;2023-04-12T00:37:39;10.00;99.90
58469;DHT22;44257;44.804;10.220;2023-04-12T00:40:08;9.90;99.90
58469;DHT22;44257;44.804;10.220;2023-04-12T00:42:35;9.80;99.90
58469;DHT22;44257;44.804;10.220;2023-04-12T00:45:01;9.70;99.90
58469;DHT22;44257;44.804;10.220;2023-04-12T00:47:27;9.70;99.90
58469;DHT22;44257;44.804;10.220;2023-04-12T00:49:54;9.70;99.90
58469;DHT22;44257;44.804;10.220;2023-04-12T00:52:21;9.70;99.90
58469;DHT22;44257;44.804;10.220;2023-04-12T00:54:48;9.70;99.90
58469;DHT22;44257;44.804;10.220;2023-04-12T00:57:14;9.60;99.90
58469;DHT22;44257;44.804;10.220;2023-04-12T00:59:40;9.60;99.90
58469;DHT22;44257;44.804;10.220;2023-04-12T01:02:06;9.50;99.90
58469;DHT22;44257;44.804;10.220;2023-04-12T01:04:32;9.50;99.90
58469;DHT22;44257;44.804;10.220;2023-04-12T01:07:46;9.50;99.90
58469;DHT22;44257;44.804;10.220;2023-04-12T01:16:13;9.40;99.90
58469;DHT22;44257;44.804;10.220;2023-04-12T01:18:44;9.40;99.90
58469;DHT22;44257;44.804;10.220;2023-04-12T01:21:28;9.30;99.90
58469;DHT22;44257;44.804;10.220;2023-04-12T01:24:00;9.30;99.90
58469;DHT22;44257;44.804;10.220;2023-04-12T01:26:40;9.30;99.90
58469;DHT22;44257;44.804;10.220;2023-04-12T01:29:13;9.30;99.90
58469;DHT22;44257;44.804;10.220;2023-04-12T01:31:42;9.30;99.90
58469;DHT22;44257;44.804;10.220;2023-04-12T01:34:11;9.30;99.90
58469;DHT22;44257;44.804;10.220;2023-04-12T01:36:38;9.20;99.90
58469;DHT22;44257;44.804;10.220;2023-04-12T01:39:06;9.10;99.90
58469;DHT22;44257;44.804;10.220;2023-04-12T01:41:33;9.10;99.90
58469;DHT22;44257;44.804;10.220;2023-04-12T01:44:04;9.00;99.90
58469;DHT22;44257;44.804;10.220;2023-04-12T01:46:30;9.00;99.90
58469;DHT22;44257;44.804;10.220;2023-04-12T01:48:57;9.00;99.90
58469;DHT22;44257;44.804;10.220;2023-04-12T01:53:59;9.00;99.90
58469;DHT22;44257;44.804;10.220;2023-04-12T01:56:30;9.00;99.90
58469;DHT22;44257;44.804;10.220;2023-04-12T01:59:01;9.00;99.90
58469;DHT22;44257;44.804;10.220;2023-04-12T02:01:29;8.90;99.90
58469;DHT22;44257;44.804;10.220;2023-04-12T02:03:59;8.90;99.90
58469;DHT22;44257;44.804;10.220;2023-04-12T02:06:29;8.90;99.90
58469;DHT22;44257;44.804;10.220;2023-04-12T02:09:01;8.80;99.90
58469;DHT22;44257;44.804;10.220;2023-04-12T02:11:28;8.80;99.90
58469;DHT22;44257;44.804;10.220;2023-04-12T02:13:53;8.80;99.90
58469;DHT22;44257;44.804;10.220;2023-04-12T02:16:19;8.80;99.90
58469;DHT22;44257;44.804;10.220;2023-04-12T02:18:48;8.80;99.90
58469;DHT22;44257;44.804;10.220;2023-04-12T02:21:16;8.80;99.90
58469;DHT22;44257;44.804;10.220;2023-04-12T02:23:42;8.70;99.90
58469;DHT22;44257;44.804;10.220;2023-04-12T02:26:10;8.60;99.90
58469;DHT22;44257;44.804;10.220;2023-04-12T02:28:37;8.60;99.90
58469;DHT22;44257;44.804;10.220;2023-04-12T02:31:05;8.50;99.90
58469;DHT22;44257;44.804;10.220;2023-04-12T02:33:33;8.50;99.90
58469;DHT22;44257;44.804;10.220;2023-04-12T02:36:00;8.50;99.90
58469;DHT22;44257;44.804;10.220;2023-04-12T02:38:29;8.50;99.90
58469;DHT22;44257;44.804;10.220;2023-04-12T02:40:59;8.40;99.90
58469;DHT22;44257;44.804;10.220;2023-04-12T02:43:25;8.40;99.90
58469;DHT22;44257;44.804;10.220;2023-04-12T02:45:58;8.30;99.90
58469;DHT22;44257;44.804;10.220;2023-04-12T02:48:24;8.30;99.90
58469;DHT22;44257;44.804;10.220;2023-04-12T02:50:51;8.20;99.90
58469;DHT22;44257;44.804;10.220;2023-04-12T02:53:21;8.20;99.90
58469;DHT22;44257;44.804;10.220;2023-04-12T02:55:56;8.20;99.90
58469;DHT22;44257;44.804;10.220;2023-04-12T02:58:26;8.30;99.90
58469;DHT22;44257;44.804;10.220;2023-04-12T03:00:52;8.30;99.90
58469;DHT22;44257;44.804;10.220;2023-04-12T03:03:24;8.30;99.90
58469;DHT22;44257;44.804;10.220;2023-04-12T03:05:54;8.30;99.90
58469;DHT22;44257;44.804;10.220;2023-04-12T03:08:21;8.40;99.90
58469;DHT22;44257;44.804;10.220;2023-04-12T03:10:53;8.40;99.90
58469;DHT22;44257;44.804;10.220;2023-04-12T03:13:20;8.50;99.90
58469;DHT22;44257;44.804;10.220;2023-04-12T03:15:53;8.50;99.90
58469;DHT22;44257;44.804;10.220;2023-04-12T03:18:19;8.50;99.90
58469;DHT22;44257;44.804;10.220;2023-04-12T03:20:48;8.60;99.90
58469;DHT22;44257;44.804;10.220;2023-04-12T03:23:15;8.60;99.90
58469;DHT22;44257;44.804;10.220;2023-04-12T03:25:49;8.60;99.90
58469;DHT22;44257;44.804;10.220;2023-04-12T03:28:47;8.50;99.90
58469;DHT22;44257;44.804;10.220;2023-04-12T03:31:14;8.40;99.90
58469;DHT22;44257;44.804;10.220;2023-04-12T03:33:45;8.30;99.90
58469;DHT22;44257;44.804;10.220;2023-04-12T03:36:31;8.30;99.90
58469;DHT22;44257;44.804;10.220;2023-04-12T03:39:06;8.30;99.90
58469;DHT22;44257;44.804;10.220;2023-04-12T03:41:34;8.20;99.90
58469;DHT22;44257;44.804;10.220;2023-04-12T03:44:03;8.20;99.90
58469;DHT22;44257;44.804;10.220;2023-04-12T03:46:30;8.20;99.90
58469;DHT22;44257;44.804;10.220;2023-04-12T03:49:00;8.20;99.90
58469;DHT22;44257;44.804;10.220;2023-04-12T03:51:26;8.10;99.90
58469;DHT22;44257;44.804;10.220;2023-04-12T03:53:58;8.10;99.90
58469;DHT22;44257;44.804;10.220;2023-04-12T03:56:27;8.10;99.90
58469;DHT22;44257;44.804;10.220;2023-04-12T03:58:55;8.10;99.90
58469;DHT22;44257;44.804;10.220;2023-04-12T04:01:22;8.00;99.90
58469;DHT22;44257;44.804;10.220;2023-04-12T04:03:49;8.00;99.90
58469;DHT22;44257;44.804;10.220;2023-04-12T04:06:22;8.00;99.90
58469;DHT22;44257;44.804;10.220;2023-04-12T04:08:51;8.00;99.90
58469;DHT22;44257;44.804;10.220;2023-04-12T04:11:17;8.00;99.90
58469;DHT22;44257;44.804;10.220;2023-04-12T04:13:48;8.00;99.90
58469;DHT22;44257;44.804;10.220;2023-04-12T04:16:18;8.10;99.90
58469;DHT22;44257;44.804;10.220;2023-04-12T04:18:44;8.00;99.90
58469;DHT22;44257;44.804;10.220;2023-04-12T04:21:12;8.10;99.90
58469;DHT22;44257;44.804;10.220;2023-04-12T04:23:41;8.10;99.90
58469;DHT22;44257;44.804;10.220;2023-04-12T04:26:10;8.00;99.90
58469;DHT22;44257;44.804;10.220;2023-04-12T04:28:42;8.10;99.90
58469;DHT22;44257;44.804;10.220;2023-04-12T04:31:11;8.10;99.90
58469;DHT22;44257;44.804;10.220;2023-04-12T04:33:39;8.00;99.90
58469;DHT22;44257;44.804;10.220;2023-04-12T04:36:08;8.00;99.90
58469;DHT22;44257;44.804;10.220;2023-04-12T04:38:36;8.00;99.90
58469;DHT22;44257;44.804;10.220;2023-04-12T04:41:22;8.00;99.90
58469;DHT22;44257;44.804;10.220;2023-04-12T04:43:54;8.00;99.90
58469;DHT22;44257;44.804;10.220;2023-04-12T04:46:20;8.00;99.90
58469;DHT22;44257;44.804;10.220;2023-04-12T04:48:47;8.00;99.90
58469;DHT22;44257;44.804;10.220;2023-04-12T04:51:14;8.00;99.90
58469;DHT22;44257;44.804;10.220;2023-04-12T04:53:40;8.10;99.90
58469;DHT22;44257;44.804;10.220;2023-04-12T04:56:10;8.10;99.90
58469;DHT22;44257;44.804;10.220;2023-04-12T04:58:37;8.10;99.90
58469;DHT22;44257;44.804;10.220;2023-04-12T05:01:04;8.10;99.90
58469;DHT22;44257;44.804;10.220;2023-04-12T05:03:32;8.10;99.90
58469;DHT22;44257;44.804;10.220;2023-04-12T05:05:59;8.10;99.90
58469;DHT22;44257;44.804;10.220;2023-04-12T05:08:27;8.20;99.90
58469;DHT22;44257;44.804;10.220;2023-04-12T05:10:55;8.20;99.90
58469;DHT22;44257;44.804;10.220;2023-04-12T05:13:23;8.30;99.90
58469;DHT22;44257;44.804;10.220;2023-04-12T05:15:49;8.30;99.90
58469;DHT22;44257;44.804;10.220;2023-04-12T05:18:15;8.40;99.90
58469;DHT22;44257;44.804;10.220;2023-04-12T05:20:42;8.40;99.90
58469;DHT22;44257;44.804;10.220;2023-04-12T05:23:09;8.60;99.90
58469;DHT22;44257;44.804;10.220;2023-04-12T05:25:35;8.70;99.90
58469;DHT22;44257;44.804;10.220;2023-04-12T05:28:05;8.80;99.90
58469;DHT22;44257;44.804;10.220;2023-04-12T05:30:36;8.90;99.90
58469;DHT22;44257;44.804;10.220;2023-04-12T05:33:05;9.00;99.90
58469;DHT22;44257;44.804;10.220;2023-04-12T05:35:32;9.10;99.90
58469;DHT22;44257;44.804;10.220;2023-04-12T05:37:58;9.20;99.90
58469;DHT22;44257;44.804;10.220;2023-04-12T05:40:24;9.30;99.90
58469;DHT22;44257;44.804;10.220;2023-04-12T05:42:52;9.40;99.90
58469;DHT22;44257;44.804;10.220;2023-04-12T05:45:19;9.50;99.90
58469;DHT22;44257;44.804;10.220;2023-04-12T05:47:45;9.60;99.90
58469;DHT22;44257;44.804;10.220;2023-04-12T05:50:10;9.70;99.90
58469;DHT22;44257;44.804;10.220;2023-04-12T05:52:37;9.80;99.90
58469;DHT22;44257;44.804;10.220;2023-04-12T05:55:05;9.90;99.90
58469;DHT22;44257;44.804;10.220;2023-04-12T05:57:34;10.00;99.90
58469;DHT22;44257;44.804;10.220;2023-04-12T06:00:00;10.00;99.90
58469;DHT22;44257;44.804;10.220;2023-04-12T06:02:26;10.10;99.90
58469;DHT22;44257;44.804;10.220;2023-04-12T06:04:52;10.20;99.90
58469;DHT22;44257;44.804;10.220;2023-04-12T06:07:19;10.20;99.90
58469;DHT22;44257;44.804;10.220;2023-04-12T06:09:45;10.30;99.90
58469;DHT22;44257;44.804;10.220;2023-04-12T06:12:12;10.40;99.90
58469;DHT22;44257;44.804;10.220;2023-04-12T06:14:38;10.50;99.90
58469;DHT22;44257;44.804;10.220;2023-04-12T06:17:05;10.60;99.90
58469;DHT22;44257;44.804;10.220;2023-04-12T06:19:32;10.60;99.90
58469;DHT22;44257;44.804;10.220;2023-04-12T06:21:58;10.70;99.90
58469;DHT22;44257;44.804;10.220;2023-04-12T06:24:24;10.80;99.90
58469;DHT22;44257;44.804;10.220;2023-04-12T06:26:49;10.90;99.90
58469;DHT22;44257;44.804;10.220;2023-04-12T06:29:15;11.00;99.90
58469;DHT22;44257;44.804;10.220;2023-04-12T06:31:44;11.10;99.90
58469;DHT22;44257;44.804;10.220;2023-04-12T06:34:10;11.20;99.90
58469;DHT22;44257;44.804;10.220;2023-04-12T06:36:37;11.20;99.90
58469;DHT22;44257;44.804;10.220;2023-04-12T06:39:06;11.30;99.90
58469;DHT22;44257;44.804;10.220;2023-04-12T06:41:32;11.30;99.90
58469;DHT22;44257;44.804;10.220;2023-04-12T06:43:59;11.40;99.90
58469;DHT22;44257;44.804;10.220;2023-04-12T06:46:26;11.40;99.90
58469;DHT22;44257;44.804;10.220;2023-04-12T06:48:52;11.50;99.90
58469;DHT22;44257;44.804;10.220;2023-04-12T06:51:18;11.60;99.90
58469;DHT22;44257;44.804;10.220;2023-04-12T06:53:44;11.60;99.90
58469;DHT22;44257;44.804;10.220;2023-04-12T06:56:09;11.60;99.90
58469;DHT22;44257;44.804;10.220;2023-04-12T06:58:35;11.60;99.90
58469;DHT22;44257;44.804;10.220;2023-04-12T07:01:08;11.60;99.90
58469;DHT22;44257;44.804;10.220;2023-04-12T07:03:38;11.70;99.90
58469;DHT22;44257;44.804;10.220;2023-04-12T07:06:03;11.70;99.90
58469;DHT22;44257;44.804;10.220;2023-04-12T07:08:31;11.70;99.90
58469;DHT22;44257;44.804;10.220;2023-04-12T07:10:57;11.80;99.90
58469;DHT22;44257;44.804;10.220;2023-04-12T07:13:23;11.80;99.90
58469;DHT22;44257;44.804;10.220;2023-04-12T07:15:49;11.80;99.90
58469;DHT22;44257;44.804;10.220;2023-04-12T07:18:15;11.80;99.90
58469;DHT22;44257;44.804;10.220;2023-04-12T07:20:42;11.80;99.90
58469;DHT22;44257;44.804;10.220;2023-04-12T07:23:08;11.80;99.90
58469;DHT22;44257;44.804;10.220;2023-04-12T07:25:36;11.90;99.90
58469;DHT22;44257;44.804;10.220;2023-04-12T07:28:03;11.90;99.90
58469;DHT22;44257;44.804;10.220;2023-04-12T07:30:30;11.90;99.90
58469;DHT22;44257;44.804;10.220;2023-04-12T07:32:57;12.00;99.90
58469;DHT22;44257;44.804;10.220;2023-04-12T07:35:25;12.00;99.90
58469;DHT22;44257;44.804;10.220;2023-04-12T07:37:52;12.00;99.90
58469;DHT22;44257;44.804;10.220;2023-04-12T07:40:18;12.00;99.90
58469;DHT22;44257;44.804;10.220;2023-04-12T07:42:44;12.00;99.90
58469;DHT22;44257;44.804;10.220;2023-04-12T07:45:10;12.10;99.90
58469;DHT22;44257;44.804;10.220;2023-04-12T07:47:36;12.10;99.90
58469;DHT22;44257;44.804;10.220;2023-04-12T07:50:02;12.20;99.90
58469;DHT22;44257;44.804;10.220;2023-04-12T07:52:29;12.20;99.90
58469;DHT22;44257;44.804;10.220;2023-04-12T07:54:54;12.30;99.90
58469;DHT22;44257;44.804;10.220;2023-04-12T07:57:20;12.30;99.90
58469;DHT22;44257;44.804;10.220;2023-04-12T07:59:47;12.40;99.90
58469;DHT22;44257;44.804;10.220;2023-04-12T08:02:13;12.40;99.90
58469;DHT22;44257;44.804;10.220;2023-04-12T08:04:39;12.40;99.90
58469;DHT22;44257;44.804;10.220;2023-04-12T08:07:08;12.50;99.90
58469;DHT22;44257;44.804;10.220;2023-04-12T08:09:34;12.50;99.90
58469;DHT22;44257;44.804;10.220;2023-04-12T08:12:00;12.50;99.90
58469;DHT22;44257;44.804;10.220;2023-04-12T08:14:26;12.60;99.90
58469;DHT22;44257;44.804;10.220;2023-04-12T08:16:52;12.70;99.90
58469;DHT22;44257;44.804;10.220;2023-04-12T08:19:19;12.70;99.90
58469;DHT22;44257;44.804;10.220;2023-04-12T08:21:45;12.80;99.90
58469;DHT22;44257;44.804;10.220;2023-04-12T08:24:11;12.80;99.90
58469;DHT22;44257;44.804;10.220;2023-04-12T08:26:37;12.90;99.90
58469;DHT22;44257;44.804;10.220;2023-04-12T08:29:03;13.00;99.90
58469;DHT22;44257;44.804;10.220;2023-04-12T08:31:29;13.00;99.90
58469;DHT22;44257;44.804;10.220;2023-04-12T08:33:55;13.10;99.90
58469;DHT22;44257;44.804;10.220;2023-04-12T08:36:21;13.20;99.90
58469;DHT22;44257;44.804;10.220;2023-04-12T08:38:47;13.30;99.90
58469;DHT22;44257;44.804;10.220;2023-04-12T08:41:17;13.50;99.90
58469;DHT22;44257;44.804;10.220;2023-04-12T08:43:44;13.60;99.90
58469;DHT22;44257;44.804;10.220;2023-04-12T08:46:13;13.70;99.90
58469;DHT22;44257;44.804;10.220;2023-04-12T08:48:40;13.90;99.90
58469;DHT22;44257;44.804;10.220;2023-04-12T08:51:10;14.20;99.90
58469;DHT22;44257;44.804;10.220;2023-04-12T08:53:37;14.40;99.90
58469;DHT22;44257;44.804;10.220;2023-04-12T08:56:06;14.60;99.90
58469;DHT22;44257;44.804;10.220;2023-04-12T08:58:35;14.80;99.90
58469;DHT22;44257;44.804;10.220;2023-04-12T09:01:02;14.90;99.90
58469;DHT22;44257;44.804;10.220;2023-04-12T09:03:28;15.00;99.90
58469;DHT22;44257;44.804;10.220;2023-04-12T09:05:55;15.10;99.90
58469;DHT22;44257;44.804;10.220;2023-04-12T09:08:21;15.10;99.90
58469;DHT22;44257;44.804;10.220;2023-04-12T09:10:47;15.20;99.90
58469;DHT22;44257;44.804;10.220;2023-04-12T09:13:13;15.30;99.90
58469;DHT22;44257;44.804;10.220;2023-04-12T09:15:48;15.50;99.90
58469;DHT22;44257;44.804;10.220;2023-04-12T09:18:14;15.60;99.90
58469;DHT22;44257;44.804;10.220;2023-04-12T09:20:40;15.70;99.90
58469;DHT22;44257;44.804;10.220;2023-04-12T09:23:19;15.90;99.90
58469;DHT22;44257;44.804;10.220;2023-04-12T09:25:46;16.00;99.90
58469;DHT22;44257;44.804;10.220;2023-04-12T09:28:22;16.20;99.90
58469;DHT22;44257;44.804;10.220;2023-04-12T09:30:49;16.30;99.90
58469;DHT22;44257;44.804;10.220;2023-04-12T09:33:42;16.40;99.90
58469;DHT22;44257;44.804;10.220;2023-04-12T09:36:08;16.50;99.90
58469;DHT22;44257;44.804;10.220;2023-04-12T09:38:37;16.60;99.90
58469;DHT22;44257;44.804;10.220;2023-04-12T09:41:17;16.70;99.90
58469;DHT22;44257;44.804;10.220;2023-04-12T09:43:44;16.80;99.90
58469;DHT22;44257;44.804;10.220;2023-04-12T09:46:11;16.80;99.90
58469;DHT22;44257;44.804;10.220;2023-04-12T09:48:41;16.80;99.90
58469;DHT22;44257;44.804;10.220;2023-04-12T09:51:13;16.80;99.90
58469;DHT22;44257;44.804;10.220;2023-04-12T09:53:49;16.90;99.90
58469;DHT22;44257;44.804;10.220;2023-04-12T09:56:16;16.80;99.90
58469;DHT22;44257;44.804;10.220;2023-04-12T09:58:43;16.80;99.90
58469;DHT22;44257;44.804;10.220;2023-04-12T10:01:10;16.70;99.90
58469;DHT22;44257;44.804;10.220;2023-04-12T10:03:36;16.70;99.90
58469;DHT22;44257;44.804;10.220;2023-04-12T10:06:03;16.80;99.90
58469;DHT22;44257;44.804;10.220;2023-04-12T10:08:30;16.90;99.90
58469;DHT22;44257;44.804;10.220;2023-04-12T10:10:57;17.00;99.90
58469;DHT22;44257;44.804;10.220;2023-04-12T10:13:25;17.20;99.90
58469;DHT22;44257;44.804;10.220;2023-04-12T10:15:52;17.40;99.90
58469;DHT22;44257;44.804;10.220;2023-04-12T10:18:19;17.50;99.90
58469;DHT22;44257;44.804;10.220;2023-04-12T10:20:46;17.50;99.90
58469;DHT22;44257;44.804;10.220;2023-04-12T10:23:15;17.60;99.90
58469;DHT22;44257;44.804;10.220;2023-04-12T10:25:45;17.70;99.90
58469;DHT22;44257;44.804;10.220;2023-04-12T10:28:16;17.80;99.90
58469;DHT22;44257;44.804;10.220;2023-04-12T10:30:43;17.80;99.90
58469;DHT22;44257;44.804;10.220;2023-04-12T10:33:10;17.70;99.90
58469;DHT22;44257;44.804;10.220;2023-04-12T10:35:56;17.90;99.90
58469;DHT22;44257;44.804;10.220;2023-04-12T10:38:23;18.20;99.90
58469;DHT22;44257;44.804;10.220;2023-04-12T10:41:09;18.30;99.90
58469;DHT22;44257;44.804;10.220;2023-04-12T10:43:36;18.40;99.90
58469;DHT22;44257;44.804;10.220;2023-04-12T10:46:02;18.40;99.90
58469;DHT22;44257;44.804;10.220;2023-04-12T10:48:38;18.40;99.90
58469;DHT22;44257;44.804;10.220;2023-04-12T10:51:14;18.40;99.90
58469;DHT22;44257;44.804;10.220;2023-04-12T10:53:52;18.50;99.90
58469;DHT22;44257;44.804;10.220;2023-04-12T10:59:00;18.80;99.90
58469;DHT22;44257;44.804;10.220;2023-04-12T11:01:30;19.00;99.90
58469;DHT22;44257;44.804;10.220;2023-04-12T11:06:41;19.10;99.90
58469;DHT22;44257;44.804;10.220;2023-04-12T11:09:43;19.10;99.90
58469;DHT22;44257;44.804;10.220;2023-04-12T11:12:14;19.10;99.90
58469;DHT22;44257;44.804;10.220;2023-04-12T11:14:49;19.30;99.90
58469;DHT22;44257;44.804;10.220;2023-04-12T11:19:49;19.80;99.90
58469;DHT22;44257;44.804;10.220;2023-04-12T11:22:17;19.90;99.90
58469;DHT22;44257;44.804;10.220;2023-04-12T11:24:51;20.00;99.90
58469;DHT22;44257;44.804;10.220;2023-04-12T11:27:19;19.70;99.90
58469;DHT22;44257;44.804;10.220;2023-04-12T11:29:50;19.60;99.90
58469;DHT22;44257;44.804;10.220;2023-04-12T11:32:19;19.50;99.90
58469;DHT22;44257;44.804;10.220;2023-04-12T11:34:45;19.50;99.90
58469;DHT22;44257;44.804;10.220;2023-04-12T11:37:12;19.60;99.90
58469;DHT22;44257;44.804;10.220;2023-04-12T11:39:43;20.00;99.90
58469;DHT22;44257;44.804;10.220;2023-04-12T11:42:17;20.30;99.90
58469;DHT22;44257;44.804;10.220;2023-04-12T11:44:43;20.50;99.90
58469;DHT22;44257;44.804;10.220;2023-04-12T11:47:20;20.60;99.90
58469;DHT22;44257;44.804;10.220;2023-04-12T11:49:48;20.60;99.90
58469;DHT22;44257;44.804;10.220;2023-04-12T11:52:15;20.50;99.90
58469;DHT22;44257;44.804;10.220;2023-04-12T11:54:43;20.30;99.90
58469;DHT22;44257;44.804;10.220;2023-04-12T11:57:11;20.00;99.90
58469;DHT22;44257;44.804;10.220;2023-04-12T11:59:37;19.80;99.90
58469;DHT22;44257;44.804;10.220;2023-04-12T12:02:03;19.60;99.90
58469;DHT22;44257;44.804;10.220;2023-04-12T12:04:30;19.50;99.90
58469;DHT22;44257;44.804;10.220;2023-04-12T12:06:56;19.50;99.90
58469;DHT22;44257;44.804;10.220;2023-04-12T12:09:26;19.40;99.90
58469;DHT22;44257;44.804;10.220;2023-04-12T12:11:53;19.50;99.90
58469;DHT22;44257;44.804;10.220;2023-04-12T12:14:21;19.50;99.90
58469;DHT22;44257;44.804;10.220;2023-04-12T12:16:57;19.30;99.90
58469;DHT22;44257;44.804;10.220;2023-04-12T12:19:31;19.20;99.90
58469;DHT22;44257;44.804;10.220;2023-04-12T12:22:27;19.00;99.90
58469;DHT22;44257;44.804;10.220;2023-04-12T12:24:57;18.90;99.90
58469;DHT22;44257;44.804;10.220;2023-04-12T12:27:33;18.90;99.90
58469;DHT22;44257;44.804;10.220;2023-04-12T12:30:00;18.90;99.90
58469;DHT22;44257;44.804;10.220;2023-04-12T12:32:35;18.80;99.90
58469;DHT22;44257;44.804;10.220;2023-04-12T12:35:02;18.60;99.90
58469;DHT22;44257;44.804;10.220;2023-04-12T12:37:29;18.50;99.90
58469;DHT22;44257;44.804;10.220;2023-04-12T12:40:02;18.40;99.90
58469;DHT22;44257;44.804;10.220;2023-04-12T12:42:34;18.30;99.90
58469;DHT22;44257;44.804;10.220;2023-04-12T12:45:01;18.30;99.90
58469;DHT22;44257;44.804;10.220;2023-04-12T12:47:29;18.30;99.90
58469;DHT22;44257;44.804;10.220;2023-04-12T12:49:56;18.20;99.90
58469;DHT22;44257;44.804;10.220;2023-04-12T12:52:23;18.10;99.90
58469;DHT22;44257;44.804;10.220;2023-04-12T12:54:48;18.00;99.90
58469;DHT22;44257;44.804;10.220;2023-04-12T12:57:14;17.90;99.90
58469;DHT22;44257;44.804;10.220;2023-04-12T12:59:40;17.90;99.90
58469;DHT22;44257;44.804;10.220;2023-04-12T13:02:06;17.70;99.90
58469;DHT22;44257;44.804;10.220;2023-04-12T13:04:32;17.60;99.90
58469;DHT22;44257;44.804;10.220;2023-04-12T13:06:58;17.60;99.90
58469;DHT22;44257;44.804;10.220;2023-04-12T13:09:25;17.50;99.90
58469;DHT22;44257;44.804;10.220;2023-04-12T13:11:54;17.50;99.90
58469;DHT22;44257;44.804;10.220;2023-04-12T13:14:21;17.40;99.90
58469;DHT22;44257;44.804;10.220;2023-04-12T13:16:48;17.40;99.90
58469;DHT22;44257;44.804;10.220;2023-04-12T13:19:13;17.40;99.90
58469;DHT22;44257;44.804;10.220;2023-04-12T13:21:40;17.40;99.90
58469;DHT22;44257;44.804;10.220;2023-04-12T13:24:06;17.40;99.90
58469;DHT22;44257;44.804;10.220;2023-04-12T13:26:32;17.40;99.90
58469;DHT22;44257;44.804;10.220;2023-04-12T13:28:58;17.40;99.90
58469;DHT22;44257;44.804;10.220;2023-04-12T13:31:23;17.60;99.90
58469;DHT22;44257;44.804;10.220;2023-04-12T13:33:49;17.80;99.90
58469;DHT22;44257;44.804;10.220;2023-04-12T13:36:15;17.90;99.90
58469;DHT22;44257;44.804;10.220;2023-04-12T13:38:41;18.00;99.90
58469;DHT22;44257;44.804;10.220;2023-04-12T13:41:07;17.90;99.90
58469;DHT22;44257;44.804;10.220;2023-04-12T13:43:33;18.00;99.90
58469;DHT22;44257;44.804;10.220;2023-04-12T13:45:58;18.00;99.90
58469;DHT22;44257;44.804;10.220;2023-04-12T13:48:24;18.00;99.90
58469;DHT22;44257;44.804;10.220;2023-04-12T13:50:50;18.00;99.90
58469;DHT22;44257;44.804;10.220;2023-04-12T13:53:16;18.10;99.90
58469;DHT22;44257;44.804;10.220;2023-04-12T13:55:42;18.20;99.90
58469;DHT22;44257;44.804;10.220;2023-04-12T13:58:08;18.20;99.90
58469;DHT22;44257;44.804;10.220;2023-04-12T14:00:34;18.10;99.90
58469;DHT22;44257;44.804;10.220;2023-04-12T14:03:00;18.10;99.90
58469;DHT22;44257;44.804;10.220;2023-04-12T14:05:26;18.20;99.90
58469;DHT22;44257;44.804;10.220;2023-04-12T14:07:52;18.20;99.90
58469;DHT22;44257;44.804;10.220;2023-04-12T14:10:20;18.20;99.90
58469;DHT22;44257;44.804;10.220;2023-04-12T14:12:46;18.10;99.90
58469;DHT22;44257;44.804;10.220;2023-04-12T14:15:11;18.00;99.90
58469;DHT22;44257;44.804;10.220;2023-04-12T14:17:38;17.90;99.90
58469;DHT22;44257;44.804;10.220;2023-04-12T14:20:04;17.70;99.90
58469;DHT22;44257;44.804;10.220;2023-04-12T14:22:34;17.70;99.90
58469;DHT22;44257;44.804;10.220;2023-04-12T14:25:00;17.70;99.90
58469;DHT22;44257;44.804;10.220;2023-04-12T14:27:25;17.80;99.90
58469;DHT22;44257;44.804;10.220;2023-04-12T14:29:51;17.80;99.90
58469;DHT22;44257;44.804;10.220;2023-04-12T14:32:17;17.80;99.90
58469;DHT22;44257;44.804;10.220;2023-04-12T14:34:43;17.70;99.90
58469;DHT22;44257;44.804;10.220;2023-04-12T14:37:09;17.80;99.90
58469;DHT22;44257;44.804;10.220;2023-04-12T14:39:35;17.80;99.90
58469;DHT22;44257;44.804;10.220;2023-04-12T14:42:01;17.80;99.90
58469;DHT22;44257;44.804;10.220;2023-04-12T14:44:28;17.80;99.90
58469;DHT22;44257;44.804;10.220;2023-04-12T14:46:54;17.70;99.90
58469;DHT22;44257;44.804;10.220;2023-04-12T14:49:19;17.70;99.90
58469;DHT22;44257;44.804;10.220;2023-04-12T14:52:02;17.60;99.90
58469;DHT22;44257;44.804;10.220;2023-04-12T14:55:02;17.70;99.90
58469;DHT22;44257;44.804;10.220;2023-04-12T14:57:40;17.80;99.90
58469;DHT22;44257;44.804;10.220;2023-04-12T15:00:07;17.90;99.90
58469;DHT22;44257;44.804;10.220;2023-04-12T15:02:41;18.10;99.90
58469;DHT22;44257;44.804;10.220;2023-04-12T15:05:09;18.20;99.90
58469;DHT22;44257;44.804;10.220;2023-04-12T15:07:35;18.30;99.90
58469;DHT22;44257;44.804;10.220;2023-04-12T15:10:01;18.50;99.90
58469;DHT22;44257;44.804;10.220;2023-04-12T15:12:29;18.60;99.90
58469;DHT22;44257;44.804;10.220;2023-04-12T15:14:58;18.60;99.90
58469;DHT22;44257;44.804;10.220;2023-04-12T15:17:25;18.50;99.90
58469;DHT22;44257;44.804;10.220;2023-04-12T15:19:51;18.50;99.90
58469;DHT22;44257;44.804;10.220;2023-04-12T15:22:17;18.50;99.90
58469;DHT22;44257;44.804;10.220;2023-04-12T15:24:43;18.60;99.90
58469;DHT22;44257;44.804;10.220;2023-04-12T15:27:08;18.50;99.90
58469;DHT22;44257;44.804;10.220;2023-04-12T15:29:34;18.50;99.90
58469;DHT22;44257;44.804;10.220;2023-04-12T15:32:00;18.40;99.90
58469;DHT22;44257;44.804;10.220;2023-04-12T15:34:26;18.40;99.90
58469;DHT22;44257;44.804;10.220;2023-04-12T15:36:53;18.50;99.90
58469;DHT22;44257;44.804;10.220;2023-04-12T15:39:19;18.40;99.90
58469;DHT22;44257;44.804;10.220;2023-04-12T15:41:45;18.30;99.90
58469;DHT22;44257;44.804;10.220;2023-04-12T15:44:11;18.10;99.90